createdAt,value
2023-08-14T00:01:05.590Z,98762.13
2023-08-14T00:03:33.105Z,98762.13
2023-08-14T00:06:00.389Z,98762.06
2023-08-14T00:08:27.563Z,98754.97
2023-08-14T00:10:56.368Z,98744.00
2023-08-14T00:13:24.062Z,98741.22
2023-08-14T00:15:51.326Z,98751.84
2023-08-14T00:18:19.692Z,98754.59
2023-08-14T00:20:47.008Z,98746.34
2023-08-14T00:23:14.319Z,98747.94
2023-08-14T00:25:41.658Z,98746.34
2023-08-14T00:28:08.789Z,98753.44
2023-08-14T00:30:35.954Z,98756.59
2023-08-14T00:33:03.033Z,98747.16
2023-08-14T00:35:30.596Z,98746.34
2023-08-14T00:37:58.022Z,98733.38
2023-08-14T00:40:25.265Z,98732.63
2023-08-14T00:42:52.233Z,98725.22
2023-08-14T00:45:19.184Z,98738.75
2023-08-14T00:47:48.182Z,98728.53
2023-08-14T00:50:18.018Z,98728.59
2023-08-14T00:52:48.883Z,98726.22
2023-08-14T00:55:29.785Z,98718.38
2023-08-14T00:57:57.916Z,98729.41
2023-08-14T01:00:29.334Z,98732.41
2023-08-14T01:02:56.595Z,98727.97
2023-08-14T01:05:25.035Z,98721.19
2023-08-14T01:07:51.843Z,98720.41
2023-08-14T01:10:19.365Z,98709.84
2023-08-14T01:13:00.282Z,98714.59
2023-08-14T01:15:40.385Z,98717.75
2023-08-14T01:18:10.979Z,98710.25
2023-08-14T01:20:41.425Z,98720.94
2023-08-14T01:23:49.806Z,98719.34
2023-08-14T01:26:16.900Z,98709.50
2023-08-14T01:28:44.556Z,98703.63
2023-08-14T01:31:11.750Z,98700.47
2023-08-14T01:33:38.898Z,98705.22
2023-08-14T01:36:37.488Z,98714.66
2023-08-14T01:39:10.885Z,98713.47
2023-08-14T01:42:18.167Z,98716.66
2023-08-14T01:44:50.163Z,98721.03
2023-08-14T01:47:17.978Z,98714.75
2023-08-14T01:49:47.134Z,98709.97
2023-08-14T01:52:14.308Z,98706.38
2023-08-14T01:54:41.334Z,98701.63
2023-08-14T01:57:08.482Z,98710.22
2023-08-14T01:59:55.999Z,98700.78
2023-08-14T02:02:23.227Z,98690.09
2023-08-14T02:04:52.919Z,98688.91
2023-08-14T02:07:22.542Z,98684.56
2023-08-14T02:09:49.347Z,98684.56
2023-08-14T02:12:19.308Z,98675.53
2023-08-14T02:14:46.499Z,98675.53
2023-08-14T02:17:13.334Z,98670.75
2023-08-14T02:19:40.262Z,98668.00
2023-08-14T02:22:07.241Z,98659.72
2023-08-14T02:24:34.451Z,98644.28
2023-08-14T02:27:01.313Z,98647.03
2023-08-14T02:29:28.504Z,98646.34
2023-08-14T02:31:55.343Z,98649.94
2023-08-14T02:34:44.086Z,98644.03
2023-08-14T02:37:12.706Z,98639.75
2023-08-14T02:39:40.359Z,98642.16
2023-08-14T02:42:08.342Z,98637.38
2023-08-14T02:44:36.420Z,98633.72
2023-08-14T02:47:04.870Z,98635.91
2023-08-14T02:49:32.039Z,98636.22
2023-08-14T02:51:59.011Z,98635.84
2023-08-14T02:54:25.927Z,98639.63
2023-08-14T02:56:54.860Z,98643.59
2023-08-14T02:59:22.798Z,98645.97
2023-08-14T03:01:50.135Z,98647.88
2023-08-14T03:04:18.354Z,98647.44
2023-08-14T03:06:45.594Z,98648.53
2023-08-14T03:09:13.147Z,98648.88
2023-08-14T03:11:40.289Z,98643.34
2023-08-14T03:14:07.693Z,98652.03
2023-08-14T03:16:34.960Z,98649.72
2023-08-14T03:19:01.886Z,98660.81
2023-08-14T03:21:29.268Z,98651.69
2023-08-14T03:23:56.723Z,98656.34
2023-08-14T03:26:23.863Z,98659.91
2023-08-14T03:28:51.014Z,98663.06
2023-08-14T03:31:17.961Z,98672.94
2023-08-14T03:33:44.815Z,98672.50
2023-08-14T03:36:11.901Z,98678.00
2023-08-14T03:38:38.831Z,98674.38
2023-08-14T03:41:05.826Z,98674.75
2023-08-14T03:43:33.342Z,98670.72
2023-08-14T03:46:00.513Z,98665.16
2023-08-14T03:48:27.620Z,98662.31
2023-08-14T03:50:54.846Z,98665.94
2023-08-14T03:53:21.994Z,98657.38
2023-08-14T03:55:50.086Z,98666.44
2023-08-14T03:58:18.260Z,98675.00
2023-08-14T04:00:48.102Z,98675.75
2023-08-14T04:03:15.895Z,98670.66
2023-08-14T04:05:43.049Z,98674.66
2023-08-14T04:08:10.310Z,98686.78
2023-08-14T04:10:38.189Z,98685.59
2023-08-14T04:13:05.148Z,98693.47
2023-08-14T04:15:32.891Z,98698.66
2023-08-14T04:18:00.308Z,98693.16
2023-08-14T04:20:27.274Z,98687.81
2023-08-14T04:22:54.248Z,98692.41
2023-08-14T04:25:21.528Z,98692.06
2023-08-14T04:27:48.464Z,98692.09
2023-08-14T04:30:15.574Z,98686.28
2023-08-14T04:32:42.607Z,98687.50
2023-08-14T04:35:10.263Z,98691.44
2023-08-14T04:37:37.642Z,98676.84
2023-08-14T04:40:06.391Z,98676.81
2023-08-14T04:42:34.490Z,98675.16
2023-08-14T04:45:01.878Z,98662.50
2023-08-14T04:47:28.865Z,98670.03
2023-08-14T04:49:56.045Z,98671.59
2023-08-14T04:52:23.455Z,98679.03
2023-08-14T04:54:51.125Z,98669.44
2023-08-14T04:57:18.265Z,98659.97
2023-08-14T04:59:45.488Z,98662.78
2023-08-14T05:02:12.431Z,98663.94
2023-08-14T05:04:39.614Z,98679.06
2023-08-14T05:07:06.565Z,98674.72
2023-08-14T05:09:33.560Z,98670.38
2023-08-14T05:12:02.395Z,98661.06
2023-08-14T05:14:29.618Z,98660.00
2023-08-14T05:16:56.661Z,98661.22
2023-08-14T05:19:23.508Z,98668.38
2023-08-14T05:21:50.549Z,98664.09
2023-08-14T05:24:17.683Z,98660.97
2023-08-14T05:26:45.101Z,98660.53
2023-08-14T05:29:12.477Z,98655.03
2023-08-14T05:31:39.403Z,98660.53
2023-08-14T05:34:08.878Z,98663.63
2023-08-14T05:36:35.761Z,98654.13
2023-08-14T05:39:02.793Z,98661.66
2023-08-14T05:41:29.685Z,98655.03
2023-08-14T05:43:56.691Z,98645.59
2023-08-14T05:46:25.350Z,98643.25
2023-08-14T05:48:52.601Z,98641.66
2023-08-14T05:51:19.593Z,98631.88
2023-08-14T05:53:46.735Z,98618.13
2023-08-14T05:56:13.656Z,98620.56
2023-08-14T05:58:40.917Z,98625.28
2023-08-14T06:01:08.107Z,98631.59
2023-08-14T06:03:44.011Z,98638.75
2023-08-14T06:06:12.547Z,98627.72
2023-08-14T06:08:39.557Z,98642.66
2023-08-14T06:11:06.794Z,98628.31
2023-08-14T06:13:34.028Z,98642.47
2023-08-14T06:16:01.090Z,98637.31
2023-08-14T06:18:28.264Z,98635.00
2023-08-14T06:20:55.799Z,98647.69
2023-08-14T06:23:23.090Z,98653.72
2023-08-14T06:25:50.289Z,98650.38
2023-08-14T06:28:17.671Z,98654.53
2023-08-14T06:30:45.195Z,98653.47
2023-08-14T06:33:13.878Z,98652.44
2023-08-14T06:35:42.452Z,98650.22
2023-08-14T06:38:09.565Z,98651.94
2023-08-14T06:40:36.604Z,98654.00
2023-08-14T06:43:04.408Z,98657.19
2023-08-14T06:45:31.570Z,98648.13
2023-08-14T06:47:58.804Z,98644.59
2023-08-14T06:50:25.864Z,98647.03
2023-08-14T06:52:53.923Z,98651.00
2023-08-14T06:55:22.303Z,98639.91
2023-08-14T06:57:49.619Z,98635.16
2023-08-14T07:00:16.900Z,98632.78
2023-08-14T07:02:46.793Z,98626.16
2023-08-14T07:05:14.608Z,98623.41
2023-08-14T07:07:42.283Z,98617.09
2023-08-14T07:10:09.990Z,98615.56
2023-08-14T07:12:38.521Z,98620.75
2023-08-14T07:15:09.811Z,98618.03
2023-08-14T07:17:37.096Z,98618.16
2023-08-14T07:20:10.739Z,98614.66
2023-08-14T07:22:38.654Z,98604.88
2023-08-14T07:25:06.990Z,98609.25
2023-08-14T07:27:34.128Z,98609.69
2023-08-14T07:30:01.226Z,98610.53
2023-08-14T07:32:28.231Z,98611.38
2023-08-14T07:34:55.370Z,98604.75
2023-08-14T07:37:22.508Z,98609.16
2023-08-14T07:39:49.429Z,98602.88
2023-08-14T07:42:16.692Z,98606.06
2023-08-14T07:44:43.736Z,98608.84
2023-08-14T07:47:12.161Z,98608.50
2023-08-14T07:49:39.726Z,98618.00
2023-08-14T07:52:07.685Z,98625.09
2023-08-14T07:58:50.073Z,98636.59
2023-08-14T08:01:17.108Z,98643.28
2023-08-14T08:03:44.003Z,98646.78
2023-08-14T08:06:11.059Z,98651.13
2023-08-14T08:08:37.950Z,98647.09
2023-08-14T08:11:04.892Z,98650.97
2023-08-14T08:13:31.718Z,98659.22
2023-08-14T08:15:58.584Z,98661.13
2023-08-14T08:18:25.351Z,98654.28
2023-08-14T08:20:52.381Z,98659.31
2023-08-14T08:23:19.176Z,98667.91
2023-08-14T08:25:46.002Z,98666.22
2023-08-14T08:28:13.263Z,98663.06
2023-08-14T08:30:40.402Z,98667.72
2023-08-14T08:33:07.855Z,98661.19
2023-08-14T08:35:34.738Z,98661.66
2023-08-14T08:38:01.588Z,98674.69
2023-08-14T08:40:30.651Z,98666.91
2023-08-14T08:43:01.041Z,98660.25
2023-08-14T08:45:34.481Z,98660.88
2023-08-14T08:48:05.103Z,98667.16
2023-08-14T08:50:32.848Z,98659.56
2023-08-14T08:53:00.443Z,98664.25
2023-08-14T08:55:28.010Z,98666.06
2023-08-14T08:57:55.969Z,98663.13
2023-08-14T09:00:25.883Z,98658.84
2023-08-14T09:02:53.355Z,98657.84
2023-08-14T09:05:21.595Z,98660.41
2023-08-14T09:07:49.470Z,98656.16
2023-08-14T09:10:17.125Z,98657.75
2023-08-14T09:12:44.593Z,98668.09
2023-08-14T09:15:11.585Z,98674.44
2023-08-14T09:17:38.951Z,98655.78
2023-08-14T09:20:15.373Z,98663.16
2023-08-14T09:22:47.250Z,98665.72
2023-08-14T09:25:16.518Z,98665.16
2023-08-14T09:27:44.283Z,98656.66
2023-08-14T09:30:14.649Z,98660.31
2023-08-14T09:32:41.981Z,98652.34
2023-08-14T09:35:09.468Z,98651.34
2023-08-14T09:37:36.561Z,98651.94
2023-08-14T09:40:11.291Z,98662.97
2023-08-14T09:42:38.794Z,98652.22
2023-08-14T09:45:07.467Z,98650.44
2023-08-14T09:47:36.056Z,98652.09
2023-08-14T09:50:04.063Z,98651.00
2023-08-14T09:52:31.969Z,98662.25
2023-08-14T09:57:31.507Z,98660.53
2023-08-14T09:59:58.463Z,98649.97
2023-08-14T10:02:27.581Z,98659.47
2023-08-14T10:04:56.399Z,98658.47
2023-08-14T10:07:27.280Z,98656.31
2023-08-14T10:09:58.156Z,98657.94
2023-08-14T10:12:30.536Z,98659.94
2023-08-14T10:15:10.019Z,98667.78
2023-08-14T10:18:17.649Z,98656.78
2023-08-14T10:20:49.241Z,98656.13
2023-08-14T10:23:17.933Z,98659.78
2023-08-14T10:25:51.942Z,98661.22
2023-08-14T10:28:20.538Z,98669.31
2023-08-14T10:30:48.128Z,98664.13
2023-08-14T10:33:17.043Z,98669.53
2023-08-14T10:35:52.249Z,98672.19
2023-08-14T10:38:25.205Z,98678.94
2023-08-14T10:41:07.240Z,98685.78
2023-08-14T10:43:34.368Z,98679.03
2023-08-14T10:46:15.162Z,98685.97
2023-08-14T10:48:45.797Z,98687.13
2023-08-14T10:51:14.281Z,98690.69
2023-08-14T10:53:42.222Z,98694.22
2023-08-14T10:56:11.370Z,98692.50
2023-08-14T10:58:39.630Z,98700.75
2023-08-14T11:01:11.951Z,98694.72
2023-08-14T11:04:06.791Z,98684.38
2023-08-14T11:06:58.641Z,98677.84
2023-08-14T11:09:35.177Z,98675.66
2023-08-14T11:12:11.208Z,98674.94
2023-08-14T11:14:43.011Z,98677.06
2023-08-14T11:17:11.537Z,98669.44
2023-08-14T11:19:39.395Z,98658.28
2023-08-14T11:22:07.083Z,98667.94
2023-08-14T11:24:34.233Z,98669.28
2023-08-14T11:27:02.972Z,98664.44
2023-08-14T11:29:31.975Z,98649.25
2023-08-14T11:32:01.704Z,98661.38
2023-08-14T11:34:29.520Z,98663.50
2023-08-14T11:39:30.610Z,98665.31
2023-08-14T11:41:58.075Z,98655.59
2023-08-14T11:44:24.927Z,98671.03
2023-08-14T11:46:52.037Z,98686.91
2023-08-14T11:49:18.993Z,98691.31
2023-08-14T11:51:47.240Z,98681.78
2023-08-14T11:54:15.377Z,98676.75
2023-08-14T11:56:42.360Z,98681.75
2023-08-14T11:59:09.328Z,98673.44
2023-08-14T12:01:38.711Z,98673.16
2023-08-14T12:04:07.488Z,98681.28
2023-08-14T12:06:35.649Z,98679.13
2023-08-14T12:09:02.701Z,98682.47
2023-08-14T12:11:30.487Z,98676.78
2023-08-14T12:13:57.688Z,98672.88
2023-08-14T12:16:28.420Z,98664.09
2023-08-14T12:18:55.848Z,98682.13
2023-08-14T12:21:28.457Z,98684.97
2023-08-14T12:23:56.601Z,98693.47
2023-08-14T12:26:23.731Z,98688.06
2023-08-14T12:28:50.739Z,98685.41
2023-08-14T12:31:18.813Z,98673.06
2023-08-14T12:33:48.901Z,98671.44
2023-08-14T12:36:20.459Z,98673.09
2023-08-14T12:38:47.371Z,98675.53
2023-08-14T12:41:14.410Z,98685.81
2023-08-14T12:43:41.496Z,98679.88
2023-08-14T12:46:10.534Z,98668.53
2023-08-14T12:48:37.892Z,98668.22
2023-08-14T12:51:04.960Z,98669.00
2023-08-14T12:53:33.401Z,98666.06
2023-08-14T12:56:04.275Z,98673.47
2023-08-14T12:58:31.912Z,98686.81
2023-08-14T13:01:04.886Z,98667.03
2023-08-14T13:03:36.824Z,98662.56
2023-08-14T13:06:07.114Z,98656.50
2023-08-14T13:08:34.041Z,98656.03
2023-08-14T13:11:01.029Z,98651.00
2023-08-14T13:13:28.597Z,98655.69
2023-08-14T13:15:56.808Z,98656.81
2023-08-14T13:18:24.501Z,98652.75
2023-08-14T13:20:51.794Z,98646.16
2023-08-14T13:23:18.705Z,98633.84
2023-08-14T13:25:45.586Z,98646.44
2023-08-14T13:28:12.747Z,98643.19
2023-08-14T13:30:41.534Z,98647.56
2023-08-14T13:33:12.276Z,98635.69
2023-08-14T13:35:39.228Z,98638.38
2023-08-14T13:38:06.192Z,98642.19
2023-08-14T13:40:33.184Z,98635.41
2023-08-14T13:43:00.184Z,98625.22
2023-08-14T13:45:27.361Z,98623.53
2023-08-14T13:47:56.352Z,98623.50
2023-08-14T13:50:34.337Z,98624.94
2023-08-14T13:53:05.381Z,98642.88
2023-08-14T13:55:34.157Z,98639.22
2023-08-14T13:58:03.006Z,98634.38
2023-08-14T14:00:31.422Z,98623.03
2023-08-14T14:02:59.772Z,98616.63
2023-08-14T14:05:27.765Z,98598.81
2023-08-14T14:07:57.356Z,98600.88
2023-08-14T14:10:26.547Z,98600.97
2023-08-14T14:15:24.228Z,98607.34
2023-08-14T14:17:52.041Z,98618.56
2023-08-14T14:20:19.993Z,98614.22
2023-08-14T14:22:46.887Z,98613.09
2023-08-14T14:25:16.623Z,98619.38
2023-08-14T14:27:43.930Z,98613.84
2023-08-14T14:30:12.086Z,98618.66
2023-08-14T14:32:39.271Z,98615.38
2023-08-14T14:35:06.960Z,98616.56
2023-08-14T14:37:34.150Z,98602.31
2023-08-14T14:40:01.169Z,98602.59
2023-08-14T14:42:28.157Z,98606.09
2023-08-14T14:44:55.459Z,98600.63
2023-08-14T14:47:25.907Z,98587.44
2023-08-14T14:49:53.115Z,98590.28
2023-08-14T14:52:20.413Z,98580.50
2023-08-14T14:54:47.307Z,98577.94
2023-08-14T14:57:14.246Z,98576.28
2023-08-14T14:59:44.511Z,98582.41
2023-08-14T15:02:27.617Z,98573.34
2023-08-14T15:04:56.965Z,98566.75
2023-08-14T15:07:23.914Z,98565.88
2023-08-14T15:09:50.962Z,98570.81
2023-08-14T15:12:17.924Z,98565.41
2023-08-14T15:14:44.800Z,98560.47
2023-08-14T15:17:12.234Z,98555.94
2023-08-14T15:19:39.342Z,98555.22
2023-08-14T15:22:06.447Z,98554.88
2023-08-14T15:24:33.696Z,98550.59
2023-08-14T15:27:00.614Z,98543.81
2023-08-14T15:29:27.533Z,98546.75
2023-08-14T15:31:54.596Z,98539.84
2023-08-14T15:34:21.570Z,98539.03
2023-08-14T15:36:48.651Z,98535.19
2023-08-14T15:39:15.599Z,98542.91
2023-08-14T15:41:43.396Z,98535.13
2023-08-14T15:44:10.341Z,98530.03
2023-08-14T15:46:37.230Z,98521.69
2023-08-14T15:49:04.980Z,98524.91
2023-08-14T15:51:31.936Z,98521.22
2023-08-14T15:53:58.947Z,98527.97
2023-08-14T15:56:26.186Z,98516.84
2023-08-14T15:58:53.084Z,98518.19
2023-08-14T16:01:20.138Z,98513.38
2023-08-14T16:03:47.117Z,98521.75
2023-08-14T16:06:14.235Z,98512.94
2023-08-14T16:08:41.236Z,98522.00
2023-08-14T16:11:08.244Z,98517.41
2023-08-14T16:13:35.188Z,98521.06
2023-08-14T16:16:02.093Z,98523.88
2023-08-14T16:18:29.238Z,98518.00
2023-08-14T16:20:57.110Z,98523.34
2023-08-14T16:23:25.837Z,98518.63
2023-08-14T16:25:52.871Z,98514.97
2023-08-14T16:28:20.097Z,98510.13
2023-08-14T16:30:46.980Z,98516.59
2023-08-14T16:33:14.476Z,98514.31
2023-08-14T16:35:41.453Z,98512.41
2023-08-14T16:38:08.328Z,98516.41
2023-08-14T16:40:43.501Z,98512.47
2023-08-14T16:43:11.576Z,98519.66
2023-08-14T16:45:39.417Z,98518.47
2023-08-14T16:48:06.998Z,98509.91
2023-08-14T16:50:38.684Z,98516.47
2023-08-14T16:53:07.131Z,98517.69
2023-08-14T16:55:34.725Z,98517.81
2023-08-14T16:58:02.286Z,98511.63
2023-08-14T17:00:30.258Z,98514.94
2023-08-14T17:02:58.136Z,98512.19
2023-08-14T17:05:25.647Z,98512.28
2023-08-14T17:07:52.870Z,98520.56
2023-08-14T17:10:19.846Z,98512.19
2023-08-14T17:12:47.640Z,98521.94
2023-08-14T17:15:15.215Z,98517.78
2023-08-14T17:17:42.837Z,98512.38
2023-08-14T17:20:11.592Z,98521.28
2023-08-14T17:22:42.486Z,98527.00
2023-08-14T17:25:10.110Z,98523.50
2023-08-14T17:27:37.407Z,98522.44
2023-08-14T17:30:04.988Z,98525.22
2023-08-14T17:32:33.925Z,98524.41
2023-08-14T17:35:00.895Z,98520.34
2023-08-14T17:37:27.771Z,98514.41
2023-08-14T17:39:55.803Z,98516.28
2023-08-14T17:42:22.780Z,98512.41
2023-08-14T17:44:49.914Z,98531.13
2023-08-14T17:47:17.037Z,98518.41
2023-08-14T17:49:44.681Z,98516.91
2023-08-14T17:52:11.605Z,98522.47
2023-08-14T17:54:38.546Z,98530.47
2023-08-14T17:57:05.637Z,98529.38
2023-08-14T17:59:32.661Z,98523.84
2023-08-14T18:01:59.752Z,98525.13
2023-08-14T18:04:26.698Z,98522.84
2023-08-14T18:06:53.666Z,98527.03
2023-08-14T18:09:20.666Z,98531.97
2023-08-14T18:11:47.652Z,98531.16
2023-08-14T18:14:14.985Z,98535.59
2023-08-14T18:16:41.877Z,98530.50
2023-08-14T18:19:27.921Z,98536.84
2023-08-14T18:21:55.918Z,98537.75
2023-08-14T18:24:22.981Z,98543.06
2023-08-14T18:26:49.994Z,98550.72
2023-08-14T18:29:18.576Z,98554.03
2023-08-14T18:31:46.010Z,98551.81
2023-08-14T18:34:13.069Z,98556.41
2023-08-14T18:36:39.978Z,98573.59
2023-08-14T18:39:06.866Z,98565.00
2023-08-14T18:41:33.964Z,98563.03
2023-08-14T18:44:00.883Z,98567.84
2023-08-14T18:46:27.895Z,98563.97
2023-08-14T18:48:55.427Z,98568.41
2023-08-14T18:51:22.326Z,98564.16
2023-08-14T18:53:51.519Z,98570.19
2023-08-14T18:56:18.379Z,98577.75
2023-08-14T18:58:48.414Z,98575.78
2023-08-14T19:01:15.317Z,98575.44
2023-08-14T19:03:42.928Z,98584.31
2023-08-14T19:06:09.849Z,98584.03
2023-08-14T19:08:36.724Z,98585.31
2023-08-14T19:11:03.564Z,98588.91
2023-08-14T19:13:30.680Z,98594.13
2023-08-14T19:15:57.638Z,98594.56
2023-08-14T19:18:24.764Z,98595.78
2023-08-14T19:20:51.802Z,98596.63
2023-08-14T19:23:18.641Z,98601.84
2023-08-14T19:25:46.204Z,98599.88
2023-08-14T19:28:21.587Z,98599.88
2023-08-14T19:30:50.960Z,98602.22
2023-08-14T19:33:18.056Z,98609.75
2023-08-14T19:35:45.036Z,98612.53
2023-08-14T19:38:12.182Z,98601.06
2023-08-14T19:40:39.436Z,98609.03
2023-08-14T19:43:06.332Z,98605.47
2023-08-14T19:45:36.559Z,98612.66
2023-08-14T19:48:04.432Z,98619.03
2023-08-14T19:50:32.302Z,98617.88
2023-08-14T19:53:00.163Z,98613.53
2023-08-14T19:55:27.699Z,98612.38
2023-08-14T19:57:54.886Z,98611.97
2023-08-14T20:00:22.039Z,98612.00
2023-08-14T20:02:51.607Z,98612.38
2023-08-14T20:05:18.952Z,98610.81
2023-08-14T20:07:45.803Z,98616.38
2023-08-14T20:10:12.712Z,98618.34
2023-08-14T20:12:39.969Z,98617.94
2023-08-14T20:15:07.751Z,98611.59
2023-08-14T20:17:34.733Z,98606.06
2023-08-14T20:20:01.583Z,98607.63
2023-08-14T20:22:28.643Z,98610.03
2023-08-14T20:24:56.000Z,98609.25
2023-08-14T20:27:23.033Z,98613.19
2023-08-14T20:29:50.028Z,98603.31
2023-08-14T20:32:16.912Z,98598.56
2023-08-14T20:34:44.310Z,98594.97
2023-08-14T20:37:12.051Z,98605.28
2023-08-14T20:39:39.449Z,98602.13
2023-08-14T20:42:06.468Z,98608.09
2023-08-14T20:44:33.334Z,98607.66
2023-08-14T20:47:00.389Z,98601.34
2023-08-14T20:49:28.717Z,98605.34
2023-08-14T20:51:55.537Z,98606.53
2023-08-14T20:54:22.549Z,98603.34
2023-08-14T20:56:50.464Z,98604.13
2023-08-14T20:59:17.470Z,98604.53
2023-08-14T21:01:46.951Z,98604.94
2023-08-14T21:04:13.824Z,98609.31
2023-08-14T21:06:40.760Z,98606.13
2023-08-14T21:09:07.689Z,98614.06
2023-08-14T21:11:34.531Z,98613.25
2023-08-14T21:14:01.575Z,98616.44
2023-08-14T21:16:28.546Z,98618.78
2023-08-14T21:18:55.486Z,98610.47
2023-08-14T21:21:22.538Z,98622.75
2023-08-14T21:23:49.339Z,98619.19
2023-08-14T21:26:16.485Z,98621.56
2023-08-14T21:28:45.517Z,98623.53
2023-08-14T21:31:13.461Z,98625.53
2023-08-14T21:33:40.658Z,98624.34
2023-08-14T21:36:07.642Z,98629.47
2023-08-14T21:38:34.597Z,98625.50
2023-08-14T21:41:04.895Z,98633.81
2023-08-14T21:43:32.019Z,98630.66
2023-08-14T21:45:59.016Z,98622.31
2023-08-14T21:48:25.955Z,98631.81
2023-08-14T21:50:53.103Z,98625.09
2023-08-14T21:53:22.015Z,98624.28
2023-08-14T21:55:50.617Z,98620.28
2023-08-14T21:58:17.884Z,98623.06
2023-08-14T22:00:45.194Z,98624.25
2023-08-14T22:03:12.175Z,98625.84
2023-08-14T22:05:39.123Z,98628.59
2023-08-14T22:08:06.221Z,98631.34
2023-08-14T22:10:33.090Z,98625.81
2023-08-14T22:12:59.957Z,98638.03
2023-08-14T22:15:36.716Z,98640.00
2023-08-14T22:18:15.605Z,98644.69
2023-08-14T22:20:46.408Z,98634.72
2023-08-14T22:23:14.001Z,98633.13
2023-08-14T22:25:45.674Z,98626.50
2023-08-14T22:28:12.594Z,98626.44
2023-08-14T22:30:40.417Z,98622.56
2023-08-14T22:33:09.085Z,98617.03
2023-08-14T22:35:36.260Z,98623.75
2023-08-14T22:38:03.199Z,98630.41
2023-08-14T22:40:30.141Z,98637.09
2023-08-14T22:42:57.198Z,98630.75
2023-08-14T22:45:26.111Z,98634.28
2023-08-14T22:47:53.430Z,98629.53
2023-08-14T22:50:20.471Z,98633.06
2023-08-14T22:52:47.590Z,98629.09
2023-08-14T22:55:14.600Z,98631.88
2023-08-14T22:57:41.469Z,98630.69
2023-08-14T23:00:10.172Z,98623.97
2023-08-14T23:02:39.252Z,98625.47
2023-08-14T23:05:08.902Z,98624.66
2023-08-14T23:07:36.109Z,98628.59
2023-08-14T23:10:03.041Z,98629.78
2023-08-14T23:12:30.152Z,98633.38
2023-08-14T23:14:57.351Z,98630.59
2023-08-14T23:17:25.397Z,98632.97
2023-08-14T23:19:52.811Z,98633.31
2023-08-14T23:22:20.024Z,98643.22
2023-08-14T23:24:47.127Z,98641.25
2023-08-14T23:27:14.251Z,98652.28
2023-08-14T23:29:41.285Z,98650.66
2023-08-14T23:32:08.331Z,98649.06
2023-08-14T23:34:35.753Z,98642.72
2023-08-14T23:37:02.594Z,98640.72
2023-08-14T23:39:30.481Z,98626.94
2023-08-14T23:41:57.438Z,98625.34
2023-08-14T23:44:24.439Z,98620.63
2023-08-14T23:46:51.772Z,98621.41
2023-08-14T23:49:18.801Z,98619.00
2023-08-14T23:51:45.676Z,98607.09
2023-08-14T23:54:12.637Z,98617.75
2023-08-14T23:56:39.527Z,98615.81
2023-08-14T23:59:06.332Z,98608.66
